sensor_id;sensor_type;location;lat;lon;timestamp;temperature;humidity
73829;SHT30;62176;48.450;-4.466;2022-08-06T00:00:49;16.22;68.93
73829;SHT30;62176;48.450;-4.466;2022-08-06T00:03:15;16.22;68.88
73829;SHT30;62176;48.450;-4.466;2022-08-06T00:05:40;16.21;69.45
73829;SHT30;62176;48.450;-4.466;2022-08-06T00:08:06;16.15;69.24
73829;SHT30;62176;48.450;-4.466;2022-08-06T00:10:31;16.16;68.91
73829;SHT30;62176;48.450;-4.466;2022-08-06T00:13:00;16.16;68.90
73829;SHT30;62176;48.450;-4.466;2022-08-06T00:15:27;16.11;69.34
73829;SHT30;62176;48.450;-4.466;2022-08-06T00:17:52;16.06;68.90
73829;SHT30;62176;48.450;-4.466;2022-08-06T00:20:18;16.08;69.22
73829;SHT30;62176;48.450;-4.466;2022-08-06T00:22:43;16.08;68.94
73829;SHT30;62176;48.450;-4.466;2022-08-06T00:25:09;16.04;69.11
73829;SHT30;62176;48.450;-4.466;2022-08-06T00:27:38;16.04;69.07
73829;SHT30;62176;48.450;-4.466;2022-08-06T00:30:05;16.06;69.10
73829;SHT30;62176;48.450;-4.466;2022-08-06T00:32:31;16.05;69.09
73829;SHT30;62176;48.450;-4.466;2022-08-06T00:34:56;16.02;69.11
73829;SHT30;62176;48.450;-4.466;2022-08-06T00:37:21;16.01;69.11
73829;SHT30;62176;48.450;-4.466;2022-08-06T00:39:47;15.97;69.96
73829;SHT30;62176;48.450;-4.466;2022-08-06T00:42:12;15.88;69.79
73829;SHT30;62176;48.450;-4.466;2022-08-06T00:44:38;15.88;69.62
73829;SHT30;62176;48.450;-4.466;2022-08-06T00:47:04;15.94;69.31
73829;SHT30;62176;48.450;-4.466;2022-08-06T00:49:29;15.94;69.29
73829;SHT30;62176;48.450;-4.466;2022-08-06T00:51:54;15.94;68.98
73829;SHT30;62176;48.450;-4.466;2022-08-06T00:54:20;15.95;69.37
73829;SHT30;62176;48.450;-4.466;2022-08-06T00:56:46;15.97;69.20
73829;SHT30;62176;48.450;-4.466;2022-08-06T00:59:11;15.97;68.95
73829;SHT30;62176;48.450;-4.466;2022-08-06T01:01:37;15.95;69.38
73829;SHT30;62176;48.450;-4.466;2022-08-06T01:04:02;15.92;69.36
73829;SHT30;62176;48.450;-4.466;2022-08-06T01:06:28;15.91;69.03
73829;SHT30;62176;48.450;-4.466;2022-08-06T01:08:53;15.92;68.93
73829;SHT30;62176;48.450;-4.466;2022-08-06T01:11:19;15.92;69.64
73829;SHT30;62176;48.450;-4.466;2022-08-06T01:13:44;15.88;69.98
73829;SHT30;62176;48.450;-4.466;2022-08-06T01:24:47;15.78;70.18
73829;SHT30;62176;48.450;-4.466;2022-08-06T01:30:03;15.82;70.20
73829;SHT30;62176;48.450;-4.466;2022-08-06T01:32:32;15.79;70.29
73829;SHT30;62176;48.450;-4.466;2022-08-06T01:35:02;15.81;70.01
73829;SHT30;62176;48.450;-4.466;2022-08-06T01:37:50;15.77;70.16
73829;SHT30;62176;48.450;-4.466;2022-08-06T01:40:19;15.77;70.39
73829;SHT30;62176;48.450;-4.466;2022-08-06T01:42:47;15.77;69.98
73829;SHT30;62176;48.450;-4.466;2022-08-06T01:45:15;15.74;70.10
73829;SHT30;62176;48.450;-4.466;2022-08-06T01:47:45;15.78;69.73
73829;SHT30;62176;48.450;-4.466;2022-08-06T01:50:13;15.74;70.16
73829;SHT30;62176;48.450;-4.466;2022-08-06T01:52:42;15.77;70.14
73829;SHT30;62176;48.450;-4.466;2022-08-06T01:55:12;15.74;70.26
73829;SHT30;62176;48.450;-4.466;2022-08-06T01:57:40;15.72;70.25
73829;SHT30;62176;48.450;-4.466;2022-08-06T02:00:08;15.71;70.48
73829;SHT30;62176;48.450;-4.466;2022-08-06T02:02:35;15.69;70.48
73829;SHT30;62176;48.450;-4.466;2022-08-06T02:05:04;15.68;70.69
73829;SHT30;62176;48.450;-4.466;2022-08-06T02:07:37;15.64;70.76
73829;SHT30;62176;48.450;-4.466;2022-08-06T02:10:07;15.61;70.97
73829;SHT30;62176;48.450;-4.466;2022-08-06T02:12:36;15.58;71.05
73829;SHT30;62176;48.450;-4.466;2022-08-06T02:15:10;15.58;71.02
73829;SHT30;62176;48.450;-4.466;2022-08-06T02:17:48;15.57;71.21
73829;SHT30;62176;48.450;-4.466;2022-08-06T02:20:17;15.55;71.48
73829;SHT30;62176;48.450;-4.466;2022-08-06T02:22:44;15.58;71.28
73829;SHT30;62176;48.450;-4.466;2022-08-06T02:25:11;15.54;71.61
73829;SHT30;62176;48.450;-4.466;2022-08-06T02:27:41;15.53;71.49
73829;SHT30;62176;48.450;-4.466;2022-08-06T02:30:10;15.54;71.31
73829;SHT30;62176;48.450;-4.466;2022-08-06T02:32:36;15.54;71.58
73829;SHT30;62176;48.450;-4.466;2022-08-06T02:35:01;15.54;71.47
73829;SHT30;62176;48.450;-4.466;2022-08-06T02:37:35;15.54;71.63
73829;SHT30;62176;48.450;-4.466;2022-08-06T02:40:22;15.54;71.54
73829;SHT30;62176;48.450;-4.466;2022-08-06T02:42:55;15.54;71.80
73829;SHT30;62176;48.450;-4.466;2022-08-06T02:45:33;15.54;71.98
73829;SHT30;62176;48.450;-4.466;2022-08-06T02:48:23;15.51;72.12
73829;SHT30;62176;48.450;-4.466;2022-08-06T02:50:51;15.53;72.17
73829;SHT30;62176;48.450;-4.466;2022-08-06T02:53:21;15.54;72.51
73829;SHT30;62176;48.450;-4.466;2022-08-06T02:55:59;15.54;72.45
73829;SHT30;62176;48.450;-4.466;2022-08-06T02:58:35;15.55;72.26
73829;SHT30;62176;48.450;-4.466;2022-08-06T03:01:08;15.53;72.41
73829;SHT30;62176;48.450;-4.466;2022-08-06T03:03:34;15.50;72.70
73829;SHT30;62176;48.450;-4.466;2022-08-06T03:06:02;15.48;72.69
73829;SHT30;62176;48.450;-4.466;2022-08-06T03:08:29;15.53;72.75
73829;SHT30;62176;48.450;-4.466;2022-08-06T03:10:56;15.48;72.84
73829;SHT30;62176;48.450;-4.466;2022-08-06T03:13:23;15.46;73.03
73829;SHT30;62176;48.450;-4.466;2022-08-06T03:15:50;15.44;73.28
73829;SHT30;62176;48.450;-4.466;2022-08-06T03:18:16;15.47;73.40
73829;SHT30;62176;48.450;-4.466;2022-08-06T03:20:43;15.47;73.25
73829;SHT30;62176;48.450;-4.466;2022-08-06T03:23:10;15.47;73.31
73829;SHT30;62176;48.450;-4.466;2022-08-06T03:25:38;15.44;73.42
73829;SHT30;62176;48.450;-4.466;2022-08-06T03:28:04;15.46;73.54
73829;SHT30;62176;48.450;-4.466;2022-08-06T03:30:32;15.44;73.59
73829;SHT30;62176;48.450;-4.466;2022-08-06T03:33:05;15.41;73.79
73829;SHT30;62176;48.450;-4.466;2022-08-06T03:35:33;15.40;73.89
73829;SHT30;62176;48.450;-4.466;2022-08-06T03:38:00;15.43;73.94
73829;SHT30;62176;48.450;-4.466;2022-08-06T03:40:28;15.40;73.95
73829;SHT30;62176;48.450;-4.466;2022-08-06T03:42:54;15.40;73.81
73829;SHT30;62176;48.450;-4.466;2022-08-06T03:45:20;15.40;73.91
73829;SHT30;62176;48.450;-4.466;2022-08-06T03:47:53;15.40;73.91
73829;SHT30;62176;48.450;-4.466;2022-08-06T03:50:22;15.38;74.00
73829;SHT30;62176;48.450;-4.466;2022-08-06T03:52:52;15.40;74.10
73829;SHT30;62176;48.450;-4.466;2022-08-06T03:55:23;15.40;73.84
73829;SHT30;62176;48.450;-4.466;2022-08-06T03:57:52;15.40;73.95
73829;SHT30;62176;48.450;-4.466;2022-08-06T04:00:22;15.41;74.16
73829;SHT30;62176;48.450;-4.466;2022-08-06T04:02:51;15.38;73.99
73829;SHT30;62176;48.450;-4.466;2022-08-06T04:05:21;15.36;74.02
73829;SHT30;62176;48.450;-4.466;2022-08-06T04:07:48;15.34;74.16
73829;SHT30;62176;48.450;-4.466;2022-08-06T04:10:15;15.33;73.99
73829;SHT30;62176;48.450;-4.466;2022-08-06T04:12:43;15.31;74.14
73829;SHT30;62176;48.450;-4.466;2022-08-06T04:15:10;15.33;73.95
73829;SHT30;62176;48.450;-4.466;2022-08-06T04:17:37;15.30;74.21
73829;SHT30;62176;48.450;-4.466;2022-08-06T04:20:06;15.23;74.31
73829;SHT30;62176;48.450;-4.466;2022-08-06T04:22:31;15.23;74.48
73829;SHT30;62176;48.450;-4.466;2022-08-06T04:24:58;15.24;74.36
73829;SHT30;62176;48.450;-4.466;2022-08-06T04:27:23;15.22;74.45
73829;SHT30;62176;48.450;-4.466;2022-08-06T04:29:51;15.24;74.29
73829;SHT30;62176;48.450;-4.466;2022-08-06T04:32:18;15.22;74.15
73829;SHT30;62176;48.450;-4.466;2022-08-06T04:34:46;15.22;74.29
73829;SHT30;62176;48.450;-4.466;2022-08-06T04:37:12;15.23;74.39
73829;SHT30;62176;48.450;-4.466;2022-08-06T04:39:38;15.23;74.51
73829;SHT30;62176;48.450;-4.466;2022-08-06T04:42:04;15.20;74.38
73829;SHT30;62176;48.450;-4.466;2022-08-06T04:44:31;15.19;74.39
73829;SHT30;62176;48.450;-4.466;2022-08-06T04:46:57;15.17;74.30
73829;SHT30;62176;48.450;-4.466;2022-08-06T04:49:23;15.22;74.55
73829;SHT30;62176;48.450;-4.466;2022-08-06T04:51:48;15.19;74.71
73829;SHT30;62176;48.450;-4.466;2022-08-06T04:54:15;15.20;74.72
73829;SHT30;62176;48.450;-4.466;2022-08-06T04:56:42;15.20;74.63
73829;SHT30;62176;48.450;-4.466;2022-08-06T04:59:09;15.22;74.43
73829;SHT30;62176;48.450;-4.466;2022-08-06T05:01:36;15.23;74.54
73829;SHT30;62176;48.450;-4.466;2022-08-06T05:04:03;15.23;74.40
73829;SHT30;62176;48.450;-4.466;2022-08-06T05:06:40;15.22;74.45
73829;SHT30;62176;48.450;-4.466;2022-08-06T05:09:11;15.20;74.61
73829;SHT30;62176;48.450;-4.466;2022-08-06T05:11:46;15.23;74.51
73829;SHT30;62176;48.450;-4.466;2022-08-06T05:14:39;15.19;74.89
73829;SHT30;62176;48.450;-4.466;2022-08-06T05:17:04;15.19;74.79
73829;SHT30;62176;48.450;-4.466;2022-08-06T05:19:35;15.20;74.65
73829;SHT30;62176;48.450;-4.466;2022-08-06T05:22:02;15.19;74.72
73829;SHT30;62176;48.450;-4.466;2022-08-06T05:24:29;15.17;74.68
73829;SHT30;62176;48.450;-4.466;2022-08-06T05:26:54;15.19;74.74
73829;SHT30;62176;48.450;-4.466;2022-08-06T05:29:20;15.20;74.86
73829;SHT30;62176;48.450;-4.466;2022-08-06T05:31:46;15.22;74.88
73829;SHT30;62176;48.450;-4.466;2022-08-06T05:34:12;15.23;74.98
73829;SHT30;62176;48.450;-4.466;2022-08-06T05:36:39;15.22;74.96
73829;SHT30;62176;48.450;-4.466;2022-08-06T05:39:05;15.17;75.98
73829;SHT30;62176;48.450;-4.466;2022-08-06T05:41:30;15.17;75.67
73829;SHT30;62176;48.450;-4.466;2022-08-06T05:43:56;15.19;75.86
73829;SHT30;62176;48.450;-4.466;2022-08-06T05:46:25;15.20;75.89
73829;SHT30;62176;48.450;-4.466;2022-08-06T05:49:05;15.22;76.00
73829;SHT30;62176;48.450;-4.466;2022-08-06T05:51:37;15.24;76.07
73829;SHT30;62176;48.450;-4.466;2022-08-06T05:54:28;15.26;76.14
73829;SHT30;62176;48.450;-4.466;2022-08-06T05:57:02;15.27;76.26
73829;SHT30;62176;48.450;-4.466;2022-08-06T05:59:30;15.27;76.31
73829;SHT30;62176;48.450;-4.466;2022-08-06T06:01:57;15.28;76.46
73829;SHT30;62176;48.450;-4.466;2022-08-06T06:04:24;15.31;76.12
73829;SHT30;62176;48.450;-4.466;2022-08-06T06:06:50;15.34;76.27
73829;SHT30;62176;48.450;-4.466;2022-08-06T06:09:16;15.36;76.46
73829;SHT30;62176;48.450;-4.466;2022-08-06T06:11:42;15.38;76.48
73829;SHT30;62176;48.450;-4.466;2022-08-06T06:17:04;15.44;76.72
73829;SHT30;62176;48.450;-4.466;2022-08-06T06:19:40;15.48;76.60
73829;SHT30;62176;48.450;-4.466;2022-08-06T06:22:23;15.51;76.61
73829;SHT30;62176;48.450;-4.466;2022-08-06T06:24:56;15.55;76.66
73829;SHT30;62176;48.450;-4.466;2022-08-06T06:30:03;15.68;76.60
73829;SHT30;62176;48.450;-4.466;2022-08-06T06:35:35;15.78;76.76
73829;SHT30;62176;48.450;-4.466;2022-08-06T06:43:08;15.95;76.69
73829;SHT30;62176;48.450;-4.466;2022-08-06T06:45:46;15.98;76.70
73829;SHT30;62176;48.450;-4.466;2022-08-06T06:48:21;16.06;76.84
73829;SHT30;62176;48.450;-4.466;2022-08-06T06:51:01;16.12;76.60
73829;SHT30;62176;48.450;-4.466;2022-08-06T06:53:31;16.16;76.65
73829;SHT30;62176;48.450;-4.466;2022-08-06T06:55:59;16.25;76.71
73829;SHT30;62176;48.450;-4.466;2022-08-06T06:58:41;16.32;76.66
73829;SHT30;62176;48.450;-4.466;2022-08-06T07:01:09;16.34;76.68
73829;SHT30;62176;48.450;-4.466;2022-08-06T07:03:38;16.39;76.56
73829;SHT30;62176;48.450;-4.466;2022-08-06T07:06:05;16.48;76.14
73829;SHT30;62176;48.450;-4.466;2022-08-06T07:08:37;16.53;76.00
73829;SHT30;62176;48.450;-4.466;2022-08-06T07:11:06;16.59;75.85
73829;SHT30;62176;48.450;-4.466;2022-08-06T07:13:35;16.66;75.64
73829;SHT30;62176;48.450;-4.466;2022-08-06T07:16:02;16.70;75.68
73829;SHT30;62176;48.450;-4.466;2022-08-06T07:18:29;16.74;75.59
73829;SHT30;62176;48.450;-4.466;2022-08-06T07:20:56;16.81;75.00
73829;SHT30;62176;48.450;-4.466;2022-08-06T07:23:22;16.84;74.95
73829;SHT30;62176;48.450;-4.466;2022-08-06T07:25:49;16.93;74.89
73829;SHT30;62176;48.450;-4.466;2022-08-06T07:28:16;16.99;74.77
73829;SHT30;62176;48.450;-4.466;2022-08-06T07:30:42;17.03;74.62
73829;SHT30;62176;48.450;-4.466;2022-08-06T07:33:10;17.10;74.43
73829;SHT30;62176;48.450;-4.466;2022-08-06T07:35:40;17.17;73.79
73829;SHT30;62176;48.450;-4.466;2022-08-06T07:38:08;17.23;73.52
73829;SHT30;62176;48.450;-4.466;2022-08-06T07:40:52;17.31;73.21
73829;SHT30;62176;48.450;-4.466;2022-08-06T07:43:21;17.38;72.96
73829;SHT30;62176;48.450;-4.466;2022-08-06T07:45:48;17.45;72.82
73829;SHT30;62176;48.450;-4.466;2022-08-06T07:48:16;17.51;72.78
73829;SHT30;62176;48.450;-4.466;2022-08-06T07:50:47;17.58;72.35
73829;SHT30;62176;48.450;-4.466;2022-08-06T07:53:16;17.68;72.32
73829;SHT30;62176;48.450;-4.466;2022-08-06T07:55:42;17.74;72.31
73829;SHT30;62176;48.450;-4.466;2022-08-06T07:58:09;17.82;71.58
73829;SHT30;62176;48.450;-4.466;2022-08-06T08:00:35;17.89;71.29
73829;SHT30;62176;48.450;-4.466;2022-08-06T08:03:01;17.96;70.63
73829;SHT30;62176;48.450;-4.466;2022-08-06T08:05:46;18.05;70.56
73829;SHT30;62176;48.450;-4.466;2022-08-06T08:08:30;18.12;70.49
73829;SHT30;62176;48.450;-4.466;2022-08-06T08:10:56;18.17;70.35
73829;SHT30;62176;48.450;-4.466;2022-08-06T08:13:23;18.28;70.24
73829;SHT30;62176;48.450;-4.466;2022-08-06T08:15:49;18.37;69.63
73829;SHT30;62176;48.450;-4.466;2022-08-06T08:18:15;18.44;69.06
73829;SHT30;62176;48.450;-4.466;2022-08-06T08:20:42;18.53;68.84
73829;SHT30;62176;48.450;-4.466;2022-08-06T08:23:11;18.60;68.94
73829;SHT30;62176;48.450;-4.466;2022-08-06T08:25:38;18.68;68.73
73829;SHT30;62176;48.450;-4.466;2022-08-06T08:28:04;18.77;67.83
73829;SHT30;62176;48.450;-4.466;2022-08-06T08:30:30;18.87;67.65
73829;SHT30;62176;48.450;-4.466;2022-08-06T08:32:56;18.93;67.61
73829;SHT30;62176;48.450;-4.466;2022-08-06T08:35:22;19.01;67.06
73829;SHT30;62176;48.450;-4.466;2022-08-06T08:37:47;19.10;65.53
73829;SHT30;62176;48.450;-4.466;2022-08-06T08:40:12;19.17;64.74
73829;SHT30;62176;48.450;-4.466;2022-08-06T08:42:46;19.28;65.10
73829;SHT30;62176;48.450;-4.466;2022-08-06T08:45:13;19.32;65.28
73829;SHT30;62176;48.450;-4.466;2022-08-06T08:47:50;19.42;64.31
73829;SHT30;62176;48.450;-4.466;2022-08-06T08:50:22;19.48;63.00
73829;SHT30;62176;48.450;-4.466;2022-08-06T08:52:50;19.59;62.77
73829;SHT30;62176;48.450;-4.466;2022-08-06T08:55:18;19.66;61.93
73829;SHT30;62176;48.450;-4.466;2022-08-06T08:57:48;19.73;61.87
73829;SHT30;62176;48.450;-4.466;2022-08-06T09:00:14;19.82;61.49
73829;SHT30;62176;48.450;-4.466;2022-08-06T09:02:40;19.89;62.04
73829;SHT30;62176;48.450;-4.466;2022-08-06T09:05:07;20.02;61.65
73829;SHT30;62176;48.450;-4.466;2022-08-06T09:07:33;20.08;59.86
73829;SHT30;62176;48.450;-4.466;2022-08-06T09:09:59;20.16;58.70
73829;SHT30;62176;48.450;-4.466;2022-08-06T09:12:25;20.23;58.48
73829;SHT30;62176;48.450;-4.466;2022-08-06T09:14:50;20.32;58.52
73829;SHT30;62176;48.450;-4.466;2022-08-06T09:17:16;20.37;57.83
73829;SHT30;62176;48.450;-4.466;2022-08-06T09:19:42;20.41;56.57
73829;SHT30;62176;48.450;-4.466;2022-08-06T09:22:09;20.48;55.59
73829;SHT30;62176;48.450;-4.466;2022-08-06T09:24:36;20.54;53.61
73829;SHT30;62176;48.450;-4.466;2022-08-06T09:27:10;20.56;54.38
73829;SHT30;62176;48.450;-4.466;2022-08-06T09:29:36;20.64;55.20
73829;SHT30;62176;48.450;-4.466;2022-08-06T09:32:12;20.76;54.74
73829;SHT30;62176;48.450;-4.466;2022-08-06T09:34:39;20.83;54.97
73829;SHT30;62176;48.450;-4.466;2022-08-06T09:37:05;20.92;54.69
73829;SHT30;62176;48.450;-4.466;2022-08-06T09:39:36;20.99;53.44
73829;SHT30;62176;48.450;-4.466;2022-08-06T09:42:05;21.09;53.03
73829;SHT30;62176;48.450;-4.466;2022-08-06T09:44:31;21.18;53.13
73829;SHT30;62176;48.450;-4.466;2022-08-06T09:46:56;21.29;52.93
73829;SHT30;62176;48.450;-4.466;2022-08-06T09:49:23;21.39;52.64
73829;SHT30;62176;48.450;-4.466;2022-08-06T09:51:48;21.48;51.39
73829;SHT30;62176;48.450;-4.466;2022-08-06T09:54:14;21.59;51.99
73829;SHT30;62176;48.450;-4.466;2022-08-06T09:56:44;21.70;50.89
73829;SHT30;62176;48.450;-4.466;2022-08-06T09:59:12;21.80;49.63
73829;SHT30;62176;48.450;-4.466;2022-08-06T10:01:47;21.90;50.43
73829;SHT30;62176;48.450;-4.466;2022-08-06T10:06:58;22.03;48.43
73829;SHT30;62176;48.450;-4.466;2022-08-06T10:09:25;22.07;48.62
73829;SHT30;62176;48.450;-4.466;2022-08-06T10:11:51;22.18;48.71
73829;SHT30;62176;48.450;-4.466;2022-08-06T10:17:09;22.39;49.27
73829;SHT30;62176;48.450;-4.466;2022-08-06T10:19:36;22.53;48.39
73829;SHT30;62176;48.450;-4.466;2022-08-06T10:22:07;22.58;47.69
73829;SHT30;62176;48.450;-4.466;2022-08-06T10:24:40;22.58;47.24
73829;SHT30;62176;48.450;-4.466;2022-08-06T10:27:07;22.63;51.69
73829;SHT30;62176;48.450;-4.466;2022-08-06T10:29:40;22.69;53.74
73829;SHT30;62176;48.450;-4.466;2022-08-06T10:32:09;22.71;53.33
73829;SHT30;62176;48.450;-4.466;2022-08-06T10:34:39;22.67;54.42
73829;SHT30;62176;48.450;-4.466;2022-08-06T10:37:06;22.68;54.10
73829;SHT30;62176;48.450;-4.466;2022-08-06T10:39:34;22.75;53.61
73829;SHT30;62176;48.450;-4.466;2022-08-06T10:42:03;22.85;52.92
73829;SHT30;62176;48.450;-4.466;2022-08-06T10:44:30;22.98;52.00
73829;SHT30;62176;48.450;-4.466;2022-08-06T10:46:56;23.05;51.26
73829;SHT30;62176;48.450;-4.466;2022-08-06T10:49:23;23.08;50.17
73829;SHT30;62176;48.450;-4.466;2022-08-06T10:51:49;23.09;49.33
73829;SHT30;62176;48.450;-4.466;2022-08-06T10:54:16;23.05;49.52
73829;SHT30;62176;48.450;-4.466;2022-08-06T10:56:42;23.08;49.48
73829;SHT30;62176;48.450;-4.466;2022-08-06T10:59:07;23.18;50.11
73829;SHT30;62176;48.450;-4.466;2022-08-06T11:01:43;23.25;48.49
73829;SHT30;62176;48.450;-4.466;2022-08-06T11:06:58;23.38;47.17
73829;SHT30;62176;48.450;-4.466;2022-08-06T11:14:55;23.72;45.90
73829;SHT30;62176;48.450;-4.466;2022-08-06T11:17:21;23.80;43.98
73829;SHT30;62176;48.450;-4.466;2022-08-06T11:19:48;23.72;43.62
73829;SHT30;62176;48.450;-4.466;2022-08-06T11:24:59;23.80;45.84
73829;SHT30;62176;48.450;-4.466;2022-08-06T11:30:14;23.76;45.39
73829;SHT30;62176;48.450;-4.466;2022-08-06T11:32:57;23.65;45.44
73829;SHT30;62176;48.450;-4.466;2022-08-06T11:35:44;23.56;45.46
73829;SHT30;62176;48.450;-4.466;2022-08-06T11:38:13;23.67;45.74
73829;SHT30;62176;48.450;-4.466;2022-08-06T11:41:18;23.80;45.14
73829;SHT30;62176;48.450;-4.466;2022-08-06T11:46:37;24.09;42.53
73829;SHT30;62176;48.450;-4.466;2022-08-06T11:49:15;24.20;44.49
73829;SHT30;62176;48.450;-4.466;2022-08-06T11:54:16;24.44;48.05
73829;SHT30;62176;48.450;-4.466;2022-08-06T12:07:41;24.60;48.99
73829;SHT30;62176;48.450;-4.466;2022-08-06T12:15:00;24.82;47.57
73829;SHT30;62176;48.450;-4.466;2022-08-06T12:17:27;24.88;46.89
73829;SHT30;62176;48.450;-4.466;2022-08-06T12:19:55;24.81;46.18
73829;SHT30;62176;48.450;-4.466;2022-08-06T12:22:22;24.74;46.41
73829;SHT30;62176;48.450;-4.466;2022-08-06T12:24:50;24.78;46.92
73829;SHT30;62176;48.450;-4.466;2022-08-06T12:27:17;24.88;46.36
73829;SHT30;62176;48.450;-4.466;2022-08-06T12:29:44;24.95;46.21
73829;SHT30;62176;48.450;-4.466;2022-08-06T12:32:33;24.96;45.62
73829;SHT30;62176;48.450;-4.466;2022-08-06T12:35:06;24.92;45.16
73829;SHT30;62176;48.450;-4.466;2022-08-06T12:37:42;25.04;44.33
73829;SHT30;62176;48.450;-4.466;2022-08-06T12:40:16;25.02;44.84
73829;SHT30;62176;48.450;-4.466;2022-08-06T12:42:54;25.12;46.41
73829;SHT30;62176;48.450;-4.466;2022-08-06T12:45:24;25.16;45.01
73829;SHT30;62176;48.450;-4.466;2022-08-06T12:48:16;25.12;46.50
73829;SHT30;62176;48.450;-4.466;2022-08-06T12:50:42;25.15;47.34
73829;SHT30;62176;48.450;-4.466;2022-08-06T12:53:10;25.26;46.37
73829;SHT30;62176;48.450;-4.466;2022-08-06T12:55:51;25.29;46.70
73829;SHT30;62176;48.450;-4.466;2022-08-06T12:58:24;25.30;46.36
73829;SHT30;62176;48.450;-4.466;2022-08-06T13:00:53;25.30;46.32
73829;SHT30;62176;48.450;-4.466;2022-08-06T13:03:21;25.38;44.83
73829;SHT30;62176;48.450;-4.466;2022-08-06T13:05:47;25.38;44.79
73829;SHT30;62176;48.450;-4.466;2022-08-06T13:08:14;25.36;44.90
73829;SHT30;62176;48.450;-4.466;2022-08-06T13:10:50;25.43;44.66
73829;SHT30;62176;48.450;-4.466;2022-08-06T13:13:16;25.50;44.01
73829;SHT30;62176;48.450;-4.466;2022-08-06T13:15:42;25.59;43.94
73829;SHT30;62176;48.450;-4.466;2022-08-06T13:18:23;25.62;44.50
73829;SHT30;62176;48.450;-4.466;2022-08-06T13:20:49;25.70;44.38
73829;SHT30;62176;48.450;-4.466;2022-08-06T13:23:32;25.84;44.50
73829;SHT30;62176;48.450;-4.466;2022-08-06T13:26:11;26.04;44.20
73829;SHT30;62176;48.450;-4.466;2022-08-06T13:28:36;26.17;44.08
73829;SHT30;62176;48.450;-4.466;2022-08-06T13:31:02;26.16;44.27
73829;SHT30;62176;48.450;-4.466;2022-08-06T13:33:27;26.21;43.80
73829;SHT30;62176;48.450;-4.466;2022-08-06T13:36:05;26.27;43.05
73829;SHT30;62176;48.450;-4.466;2022-08-06T13:38:33;26.30;42.88
73829;SHT30;62176;48.450;-4.466;2022-08-06T13:41:00;26.28;43.09
73829;SHT30;62176;48.450;-4.466;2022-08-06T13:46:05;26.38;41.79
73829;SHT30;62176;48.450;-4.466;2022-08-06T13:48:31;26.40;42.86
73829;SHT30;62176;48.450;-4.466;2022-08-06T13:50:56;26.47;42.94
73829;SHT30;62176;48.450;-4.466;2022-08-06T13:53:22;26.55;42.15
73829;SHT30;62176;48.450;-4.466;2022-08-06T13:55:47;26.58;41.67
73829;SHT30;62176;48.450;-4.466;2022-08-06T13:58:13;26.59;41.45
73829;SHT30;62176;48.450;-4.466;2022-08-06T14:00:39;26.65;41.58
73829;SHT30;62176;48.450;-4.466;2022-08-06T14:03:06;26.68;38.10
73829;SHT30;62176;48.450;-4.466;2022-08-06T14:05:32;26.67;39.68
73829;SHT30;62176;48.450;-4.466;2022-08-06T14:07:57;26.71;41.43
73829;SHT30;62176;48.450;-4.466;2022-08-06T14:10:22;26.72;41.45
73829;SHT30;62176;48.450;-4.466;2022-08-06T14:12:48;26.72;41.63
73829;SHT30;62176;48.450;-4.466;2022-08-06T14:15:50;26.79;43.25
73829;SHT30;62176;48.450;-4.466;2022-08-06T14:18:18;26.89;42.12
73829;SHT30;62176;48.450;-4.466;2022-08-06T14:20:44;26.89;41.17
73829;SHT30;62176;48.450;-4.466;2022-08-06T14:23:10;26.94;41.38
73829;SHT30;62176;48.450;-4.466;2022-08-06T14:25:36;26.99;41.38
73829;SHT30;62176;48.450;-4.466;2022-08-06T14:28:02;27.00;39.38
73829;SHT30;62176;48.450;-4.466;2022-08-06T14:30:28;27.03;37.44
73829;SHT30;62176;48.450;-4.466;2022-08-06T14:32:54;26.91;37.04
73829;SHT30;62176;48.450;-4.466;2022-08-06T14:35:19;26.91;38.25
73829;SHT30;62176;48.450;-4.466;2022-08-06T14:37:45;26.88;38.51
73829;SHT30;62176;48.450;-4.466;2022-08-06T14:40:12;26.89;37.98
73829;SHT30;62176;48.450;-4.466;2022-08-06T14:42:38;26.91;38.46
73829;SHT30;62176;48.450;-4.466;2022-08-06T14:45:23;26.98;38.76
73829;SHT30;62176;48.450;-4.466;2022-08-06T14:47:49;27.03;38.06
73829;SHT30;62176;48.450;-4.466;2022-08-06T14:50:15;27.10;37.93
73829;SHT30;62176;48.450;-4.466;2022-08-06T14:52:41;27.19;37.52
73829;SHT30;62176;48.450;-4.466;2022-08-06T14:55:07;27.25;37.52
73829;SHT30;62176;48.450;-4.466;2022-08-06T14:57:33;27.25;37.66
73829;SHT30;62176;48.450;-4.466;2022-08-06T15:00:00;27.36;36.71
73829;SHT30;62176;48.450;-4.466;2022-08-06T15:02:26;27.40;37.98
73829;SHT30;62176;48.450;-4.466;2022-08-06T15:04:52;27.38;36.55
73829;SHT30;62176;48.450;-4.466;2022-08-06T15:07:19;27.42;36.59
73829;SHT30;62176;48.450;-4.466;2022-08-06T15:09:45;27.38;36.62
73829;SHT30;62176;48.450;-4.466;2022-08-06T15:12:10;27.38;36.80
73829;SHT30;62176;48.450;-4.466;2022-08-06T15:14:36;27.46;36.54
73829;SHT30;62176;48.450;-4.466;2022-08-06T15:17:01;27.40;36.34
73829;SHT30;62176;48.450;-4.466;2022-08-06T15:19:26;27.39;36.32
73829;SHT30;62176;48.450;-4.466;2022-08-06T15:21:52;27.36;36.89
73829;SHT30;62176;48.450;-4.466;2022-08-06T15:24:17;27.32;38.23
73829;SHT30;62176;48.450;-4.466;2022-08-06T15:26:43;27.35;39.34
73829;SHT30;62176;48.450;-4.466;2022-08-06T15:29:09;27.29;38.03
73829;SHT30;62176;48.450;-4.466;2022-08-06T15:31:35;27.29;38.36
73829;SHT30;62176;48.450;-4.466;2022-08-06T15:34:01;27.32;37.95
73829;SHT30;62176;48.450;-4.466;2022-08-06T15:36:27;27.23;37.02
73829;SHT30;62176;48.450;-4.466;2022-08-06T15:38:52;27.26;36.23
73829;SHT30;62176;48.450;-4.466;2022-08-06T15:41:19;27.35;37.41
73829;SHT30;62176;48.450;-4.466;2022-08-06T15:43:45;27.29;36.30
73829;SHT30;62176;48.450;-4.466;2022-08-06T15:46:11;27.22;38.00
73829;SHT30;62176;48.450;-4.466;2022-08-06T15:48:38;27.09;38.53
73829;SHT30;62176;48.450;-4.466;2022-08-06T15:51:04;27.03;39.07
73829;SHT30;62176;48.450;-4.466;2022-08-06T15:53:29;27.10;38.57
73829;SHT30;62176;48.450;-4.466;2022-08-06T15:55:55;27.13;37.37
73829;SHT30;62176;48.450;-4.466;2022-08-06T15:58:20;27.09;35.70
73829;SHT30;62176;48.450;-4.466;2022-08-06T16:00:46;27.19;37.91
73829;SHT30;62176;48.450;-4.466;2022-08-06T16:03:12;27.39;37.09
73829;SHT30;62176;48.450;-4.466;2022-08-06T16:05:40;27.47;35.90
73829;SHT30;62176;48.450;-4.466;2022-08-06T16:08:07;27.38;36.37
73829;SHT30;62176;48.450;-4.466;2022-08-06T16:10:35;27.32;37.00
73829;SHT30;62176;48.450;-4.466;2022-08-06T16:13:01;27.28;37.55
73829;SHT30;62176;48.450;-4.466;2022-08-06T16:15:26;27.29;37.26
73829;SHT30;62176;48.450;-4.466;2022-08-06T16:17:52;27.28;37.50
73829;SHT30;62176;48.450;-4.466;2022-08-06T16:20:17;27.26;37.64
73829;SHT30;62176;48.450;-4.466;2022-08-06T16:22:44;27.29;38.19
73829;SHT30;62176;48.450;-4.466;2022-08-06T16:25:09;27.33;37.87
73829;SHT30;62176;48.450;-4.466;2022-08-06T16:27:34;27.39;37.46
73829;SHT30;62176;48.450;-4.466;2022-08-06T16:30:00;27.46;36.86
73829;SHT30;62176;48.450;-4.466;2022-08-06T16:32:25;27.35;36.65